createdAt,value
2017-10-26T00:00:54.158Z,29.36
2017-10-26T00:01:54.768Z,29.26
2017-10-26T00:02:55.381Z,29.36
2017-10-26T00:03:55.994Z,29.16
2017-10-26T00:04:56.614Z,29.45
2017-10-26T00:05:57.223Z,29.36
2017-10-26T00:06:57.838Z,29.26
2017-10-26T00:07:58.451Z,29.36
2017-10-26T00:08:59.071Z,29.36
2017-10-26T00:09:59.677Z,29.36
2017-10-26T00:11:00.287Z,29.55
2017-10-26T00:12:00.900Z,29.55
2017-10-26T00:13:01.514Z,29.55
2017-10-26T00:14:02.128Z,29.55
2017-10-26T00:15:02.736Z,29.74
2017-10-26T00:16:03.379Z,29.74
2017-10-26T00:17:03.996Z,29.64
2017-10-26T00:18:04.612Z,29.83
2017-10-26T00:19:05.226Z,29.74
2017-10-26T00:20:05.837Z,29.45
2017-10-26T00:21:06.452Z,29.45
2017-10-26T00:22:07.061Z,29.55
2017-10-26T00:23:07.674Z,29.37
2017-10-26T00:24:08.292Z,29.36
2017-10-26T00:25:08.900Z,29.27
2017-10-26T00:26:09.512Z,29.36
2017-10-26T00:27:10.130Z,29.26
2017-10-26T00:28:10.746Z,29.36
2017-10-26T00:29:11.356Z,29.36
2017-10-26T00:30:11.967Z,29.36
2017-10-26T00:31:12.580Z,29.26
2017-10-26T00:32:13.201Z,29.26
2017-10-26T00:33:13.805Z,29.64
2017-10-26T00:34:14.416Z,29.45
2017-10-26T00:35:15.028Z,29.45
2017-10-26T00:36:15.675Z,29.64
2017-10-26T00:37:16.289Z,29.45
2017-10-26T00:38:16.898Z,29.55
2017-10-26T00:39:17.518Z,29.74
2017-10-26T00:40:18.129Z,29.55
2017-10-26T00:41:18.757Z,29.64
2017-10-26T00:42:19.353Z,29.74
2017-10-26T00:43:19.965Z,30.12
2017-10-26T00:44:20.582Z,29.83
2017-10-26T00:45:21.191Z,29.82
2017-10-26T00:46:21.806Z,30.10
2017-10-26T00:47:22.419Z,30.00
2017-10-26T00:48:23.041Z,30.00
2017-10-26T00:49:23.674Z,30.00
2017-10-26T00:50:24.292Z,30.20
2017-10-26T00:51:24.935Z,30.20
2017-10-26T00:52:25.556Z,30.20
2017-10-26T00:53:26.160Z,30.39
2017-10-26T00:54:26.772Z,30.29
2017-10-26T00:55:27.390Z,30.39
2017-10-26T00:56:28.033Z,30.49
2017-10-26T00:57:28.650Z,30.20
2017-10-26T00:58:29.259Z,30.39
2017-10-26T00:59:29.868Z,30.58
2017-10-26T01:00:30.480Z,30.58
2017-10-26T01:01:31.091Z,30.49
2017-10-26T01:02:31.735Z,30.87
2017-10-26T01:03:32.345Z,30.77
2017-10-26T01:04:32.959Z,30.49
2017-10-26T01:05:33.573Z,30.49
2017-10-26T01:06:34.217Z,30.96
2017-10-26T01:07:34.830Z,30.87
2017-10-26T01:08:35.443Z,31.05
2017-10-26T01:09:36.059Z,31.15
2017-10-26T01:10:36.667Z,30.96
2017-10-26T01:11:37.279Z,30.96
2017-10-26T01:12:37.891Z,31.24
2017-10-26T01:13:38.502Z,31.24
2017-10-26T01:14:39.113Z,31.44
2017-10-26T01:15:39.730Z,31.72
2017-10-26T01:16:40.371Z,31.72
2017-10-26T01:17:40.982Z,31.63
2017-10-26T01:18:41.594Z,31.82
2017-10-26T01:19:42.213Z,31.92
2017-10-26T01:20:42.827Z,31.92
2017-10-26T01:21:43.437Z,32.10
2017-10-26T01:22:44.049Z,31.92
2017-10-26T01:23:44.660Z,32.01
2017-10-26T01:24:45.276Z,32.10
2017-10-26T01:25:45.884Z,31.82
2017-10-26T01:26:46.502Z,31.82
2017-10-26T01:27:47.112Z,31.82
2017-10-26T01:28:47.725Z,31.72
2017-10-26T01:29:48.341Z,31.72
2017-10-26T01:30:48.951Z,31.63
2017-10-26T01:31:49.568Z,31.63
2017-10-26T01:32:50.175Z,31.72
2017-10-26T01:33:50.791Z,31.63
2017-10-26T01:34:51.406Z,31.44
2017-10-26T01:35:52.017Z,31.44
2017-10-26T01:36:52.629Z,31.44
2017-10-26T01:37:53.239Z,31.44
2017-10-26T01:38:53.852Z,31.72
2017-10-26T01:39:54.499Z,31.63
2017-10-26T01:40:55.109Z,31.82
2017-10-26T01:41:55.755Z,31.82
2017-10-26T01:42:56.363Z,32.01
2017-10-26T01:43:56.976Z,32.20
2017-10-26T01:44:57.587Z,32.01
2017-10-26T01:45:58.199Z,32.10
2017-10-26T01:46:58.816Z,32.29
2017-10-26T01:47:59.424Z,32.20
2017-10-26T01:49:00.036Z,32.29
2017-10-26T01:50:00.651Z,32.29
2017-10-26T01:51:01.260Z,32.01
2017-10-26T01:52:01.872Z,32.01
2017-10-26T01:53:02.487Z,32.10
2017-10-26T01:54:03.107Z,32.10
2017-10-26T01:55:03.745Z,32.10
2017-10-26T01:56:04.363Z,32.20
2017-10-26T01:57:04.970Z,31.92
2017-10-26T01:58:05.587Z,32.01
2017-10-26T01:59:06.204Z,31.92
2017-10-26T02:00:06.819Z,32.10
2017-10-26T02:01:07.432Z,32.01
2017-10-26T02:02:08.043Z,32.10
2017-10-26T02:03:08.653Z,32.01
2017-10-26T02:04:09.264Z,32.01
2017-10-26T02:05:09.875Z,31.82
2017-10-26T02:06:10.484Z,32.10
2017-10-26T02:07:11.099Z,32.10
2017-10-26T02:08:11.740Z,32.09
2017-10-26T02:09:12.356Z,32.29
2017-10-26T02:10:12.965Z,32.29
2017-10-26T02:11:13.584Z,32.20
2017-10-26T02:12:14.227Z,32.20
2017-10-26T02:13:14.839Z,32.10
2017-10-26T02:14:15.451Z,32.20
2017-10-26T02:15:16.067Z,32.29
2017-10-26T02:16:16.682Z,32.20
2017-10-26T02:17:17.297Z,32.10
2017-10-26T02:18:17.913Z,32.29
2017-10-26T02:19:18.526Z,32.10
2017-10-26T02:20:19.142Z,32.10
2017-10-26T02:21:19.752Z,32.20
2017-10-26T02:22:20.364Z,32.48
2017-10-26T02:23:20.974Z,32.01
2017-10-26T02:24:21.585Z,32.10
2017-10-26T02:25:22.198Z,32.10
2017-10-26T02:26:22.843Z,32.01
2017-10-26T02:27:23.491Z,32.01
2017-10-26T02:28:24.098Z,32.01
2017-10-26T02:29:24.710Z,32.10
2017-10-26T02:30:25.323Z,32.10
2017-10-26T02:31:25.935Z,31.92
2017-10-26T02:32:26.553Z,32.10
2017-10-26T02:33:27.163Z,32.01
2017-10-26T02:34:27.780Z,31.92
2017-10-26T02:35:28.389Z,31.92
2017-10-26T02:36:28.999Z,31.82
2017-10-26T02:37:29.609Z,31.82
2017-10-26T02:38:30.221Z,31.63
2017-10-26T02:39:30.833Z,31.82
2017-10-26T02:40:31.443Z,31.82
2017-10-26T02:41:32.062Z,31.72
2017-10-26T02:42:32.671Z,31.53
2017-10-26T02:43:33.282Z,31.63
2017-10-26T02:44:33.900Z,31.82
2017-10-26T02:45:34.508Z,31.44
2017-10-26T02:46:35.119Z,31.44
2017-10-26T02:47:35.735Z,31.34
2017-10-26T02:48:36.392Z,31.44
2017-10-26T02:49:37.011Z,31.63
2017-10-26T02:50:37.619Z,31.34
2017-10-26T02:51:38.233Z,31.15
2017-10-26T02:52:38.844Z,31.34
2017-10-26T02:53:39.460Z,31.24
2017-10-26T02:54:40.068Z,31.24
2017-10-26T02:55:40.680Z,31.24
2017-10-26T02:56:41.329Z,31.34
2017-10-26T02:57:41.938Z,31.34
2017-10-26T02:58:42.550Z,31.34
2017-10-26T02:59:43.190Z,31.34
2017-10-26T03:00:43.807Z,31.15
2017-10-26T03:01:44.417Z,31.44
2017-10-26T03:02:45.031Z,31.53
2017-10-26T03:03:45.644Z,31.15
2017-10-26T03:04:46.254Z,31.34
2017-10-26T03:05:46.867Z,31.34
2017-10-26T03:06:47.479Z,31.34
2017-10-26T03:07:48.089Z,31.24
2017-10-26T03:08:48.700Z,31.44
2017-10-26T03:09:49.315Z,31.44
2017-10-26T03:10:49.926Z,31.34
2017-10-26T03:11:50.546Z,31.34
2017-10-26T03:12:51.151Z,31.53
2017-10-26T03:13:51.761Z,31.24
2017-10-26T03:14:52.372Z,31.34
2017-10-26T03:15:53.016Z,31.15
2017-10-26T03:16:53.626Z,31.05
2017-10-26T03:17:54.242Z,30.96
2017-10-26T03:18:54.885Z,31.05
2017-10-26T03:19:55.496Z,30.87
2017-10-26T03:20:56.106Z,30.87
2017-10-26T03:21:56.719Z,30.87
2017-10-26T03:22:57.336Z,31.15
2017-10-26T03:23:57.949Z,30.58
2017-10-26T03:24:58.562Z,30.58
2017-10-26T03:25:59.189Z,30.58
2017-10-26T03:26:59.792Z,30.49
2017-10-26T03:28:00.401Z,30.49
2017-10-26T03:29:01.013Z,30.68
2017-10-26T03:30:01.632Z,30.58
2017-10-26T03:31:02.243Z,30.58
2017-10-26T03:32:02.853Z,30.29
2017-10-26T03:33:03.465Z,30.68
2017-10-26T03:34:04.077Z,30.29
2017-10-26T03:35:04.687Z,30.39
2017-10-26T03:36:05.301Z,30.68
2017-10-26T03:37:05.912Z,30.39
2017-10-26T03:38:06.525Z,30.39
2017-10-26T03:39:07.142Z,30.10
2017-10-26T03:40:07.750Z,30.10
2017-10-26T03:41:08.370Z,30.00
2017-10-26T03:42:08.973Z,29.91
2017-10-26T03:43:09.586Z,30.10
2017-10-26T03:44:10.196Z,30.20
2017-10-26T03:45:10.809Z,30.20
2017-10-26T03:46:11.426Z,29.91
2017-10-26T03:47:12.035Z,29.82
2017-10-26T03:48:12.649Z,29.82
2017-10-26T03:49:13.259Z,30.20
2017-10-26T03:50:13.870Z,29.72
2017-10-26T03:51:14.489Z,29.63
2017-10-26T03:52:15.099Z,29.72
2017-10-26T03:53:15.715Z,29.72
2017-10-26T03:54:16.327Z,29.63
2017-10-26T03:55:16.938Z,29.53
2017-10-26T03:56:17.554Z,29.82
2017-10-26T03:57:18.168Z,29.82
2017-10-26T03:58:18.780Z,30.00
2017-10-26T03:59:19.392Z,29.91
2017-10-26T04:00:20.005Z,29.91
2017-10-26T04:01:20.615Z,29.72
2017-10-26T04:02:21.227Z,29.91
2017-10-26T04:03:21.840Z,29.63
2017-10-26T04:04:22.451Z,29.72
2017-10-26T04:05:23.062Z,29.72
2017-10-26T04:06:23.679Z,29.63
2017-10-26T04:07:24.288Z,29.53
2017-10-26T04:08:24.902Z,29.72
2017-10-26T04:09:25.513Z,29.53
2017-10-26T04:10:26.123Z,29.91
2017-10-26T04:11:26.736Z,29.61
2017-10-26T04:12:27.352Z,29.71
2017-10-26T04:13:27.962Z,29.71
2017-10-26T04:14:28.571Z,29.71
2017-10-26T04:15:29.183Z,30.09
2017-10-26T04:16:29.794Z,29.99
2017-10-26T04:17:30.412Z,29.90
2017-10-26T04:18:31.024Z,29.80
2017-10-26T04:19:31.639Z,30.18
2017-10-26T04:20:32.249Z,29.99
2017-10-26T04:21:32.889Z,30.09
2017-10-26T04:22:33.530Z,30.09
2017-10-26T04:23:34.149Z,30.37
2017-10-26T04:24:34.763Z,30.09
2017-10-26T04:25:35.377Z,30.18
2017-10-26T04:26:35.986Z,30.09
2017-10-26T04:27:36.601Z,30.37
2017-10-26T04:28:37.236Z,30.28
2017-10-26T04:29:37.854Z,29.90
2017-10-26T04:30:38.461Z,30.37
2017-10-26T04:31:39.072Z,30.37
2017-10-26T04:32:39.685Z,30.28
2017-10-26T04:33:40.298Z,30.18
2017-10-26T04:34:40.909Z,30.18
2017-10-26T04:35:41.520Z,30.09
2017-10-26T04:36:42.137Z,30.47
2017-10-26T04:37:42.747Z,30.09
2017-10-26T04:38:43.354Z,30.18
2017-10-26T04:39:43.965Z,30.37
2017-10-26T04:40:44.581Z,30.18
2017-10-26T04:41:45.202Z,30.09
2017-10-26T04:42:45.845Z,30.18
2017-10-26T04:43:46.460Z,29.80
2017-10-26T04:44:47.076Z,29.80
2017-10-26T04:45:47.690Z,29.80
2017-10-26T04:46:48.302Z,29.80
2017-10-26T04:47:48.911Z,29.80
2017-10-26T04:48:49.522Z,29.80
2017-10-26T04:49:50.185Z,29.99
2017-10-26T04:50:50.798Z,29.99
2017-10-26T04:51:51.409Z,29.90
2017-10-26T04:52:52.021Z,29.99
2017-10-26T04:53:52.631Z,29.90
2017-10-26T04:54:53.242Z,29.71
2017-10-26T04:55:53.855Z,29.71
2017-10-26T04:56:54.464Z,29.80
2017-10-26T04:57:55.074Z,29.80
2017-10-26T04:58:55.693Z,29.90
2017-10-26T04:59:56.304Z,29.99
2017-10-26T05:00:56.913Z,29.90
2017-10-26T05:01:57.528Z,29.99
2017-10-26T05:02:58.135Z,29.61
2017-10-26T05:03:58.748Z,29.61
2017-10-26T05:04:59.357Z,29.71
2017-10-26T05:05:59.973Z,29.71
2017-10-26T05:07:00.580Z,29.71
2017-10-26T05:08:01.191Z,29.71
2017-10-26T05:09:01.805Z,29.61
2017-10-26T05:10:02.417Z,29.52
2017-10-26T05:11:03.036Z,29.80
2017-10-26T05:12:03.674Z,29.52
2017-10-26T05:13:04.291Z,29.61
2017-10-26T05:14:04.901Z,29.52
2017-10-26T05:15:05.542Z,29.71
2017-10-26T05:16:06.152Z,29.61
2017-10-26T05:17:06.766Z,29.33
2017-10-26T05:18:07.377Z,29.61
2017-10-26T05:19:08.026Z,29.61
2017-10-26T05:20:08.631Z,29.33
2017-10-26T05:21:09.241Z,29.52
2017-10-26T05:22:09.851Z,29.42
2017-10-26T05:23:10.496Z,29.33
2017-10-26T05:24:11.105Z,29.33
2017-10-26T05:25:11.715Z,29.33
2017-10-26T05:26:12.325Z,29.33
2017-10-26T05:27:12.937Z,29.33
2017-10-26T05:28:13.554Z,29.33
2017-10-26T05:29:14.163Z,29.14
2017-10-26T05:30:14.782Z,29.33
2017-10-26T05:31:15.390Z,29.14
2017-10-26T05:32:16.002Z,29.33
2017-10-26T05:33:16.613Z,29.23
2017-10-26T05:34:17.223Z,29.14
2017-10-26T05:35:17.835Z,29.23
2017-10-26T05:36:18.446Z,29.23
2017-10-26T05:37:19.060Z,29.14
2017-10-26T05:38:19.672Z,29.04
2017-10-26T05:39:20.283Z,29.04
2017-10-26T05:40:20.894Z,29.23
2017-10-26T05:41:21.509Z,28.94
2017-10-26T05:42:22.122Z,29.14
2017-10-26T05:43:22.775Z,28.85
2017-10-26T05:44:23.371Z,29.04
2017-10-26T05:45:23.983Z,29.04
2017-10-26T05:46:24.611Z,28.85
2017-10-26T05:47:25.206Z,28.85
2017-10-26T05:48:25.816Z,28.94
2017-10-26T05:49:26.465Z,28.75
2017-10-26T05:50:27.077Z,29.04
2017-10-26T05:51:27.688Z,28.75
2017-10-26T05:52:28.302Z,28.85
2017-10-26T05:53:28.912Z,28.85
2017-10-26T05:54:29.525Z,28.66
2017-10-26T05:55:30.135Z,28.66
2017-10-26T05:56:30.752Z,28.75
2017-10-26T05:57:31.361Z,28.75
2017-10-26T05:58:31.973Z,28.75
2017-10-26T05:59:32.583Z,28.94
2017-10-26T06:00:33.201Z,28.85
2017-10-26T06:01:33.850Z,28.56
2017-10-26T06:02:34.495Z,28.47
2017-10-26T06:03:35.108Z,28.94
2017-10-26T06:04:35.717Z,28.66
2017-10-26T06:05:36.328Z,29.42
2017-10-26T06:06:36.945Z,28.85
2017-10-26T06:07:37.585Z,28.66
2017-10-26T06:08:38.227Z,28.66
2017-10-26T06:09:38.839Z,28.56
2017-10-26T06:10:39.450Z,28.75
2017-10-26T06:11:40.071Z,28.66
2017-10-26T06:12:40.681Z,28.66
2017-10-26T06:13:41.290Z,28.66
2017-10-26T06:14:41.907Z,28.66
2017-10-26T06:15:42.516Z,28.75
2017-10-26T06:16:43.131Z,28.75
2017-10-26T06:17:43.747Z,28.75
2017-10-26T06:18:44.371Z,28.66
2017-10-26T06:19:44.972Z,28.56
2017-10-26T06:20:45.590Z,28.56
2017-10-26T06:21:46.233Z,28.66
2017-10-26T06:22:46.844Z,28.47
2017-10-26T06:23:47.461Z,28.47
2017-10-26T06:24:48.072Z,28.09
2017-10-26T06:25:48.685Z,27.99
2017-10-26T06:26:49.297Z,29.14
2017-10-26T06:27:49.910Z,28.09
2017-10-26T06:28:50.528Z,28.47
2017-10-26T06:29:51.138Z,28.09
2017-10-26T06:30:51.779Z,28.19
2017-10-26T06:31:52.396Z,28.09
2017-10-26T06:32:53.005Z,28.09
2017-10-26T06:33:53.622Z,28.09
2017-10-26T06:34:54.270Z,28.47
2017-10-26T06:35:54.889Z,28.56
2017-10-26T06:36:55.499Z,28.66
2017-10-26T06:37:56.116Z,28.66
2017-10-26T06:38:56.756Z,28.66
2017-10-26T06:39:57.369Z,28.66
2017-10-26T06:40:57.981Z,28.66
2017-10-26T06:41:58.593Z,28.66
2017-10-26T06:42:59.213Z,29.23
2017-10-26T06:43:59.824Z,28.66
2017-10-26T06:45:00.474Z,28.66
2017-10-26T06:46:01.084Z,28.66
2017-10-26T06:47:01.702Z,28.66
2017-10-26T06:48:02.311Z,28.56
2017-10-26T06:49:02.951Z,28.19
2017-10-26T06:50:03.564Z,28.20
2017-10-26T06:51:04.206Z,29.04
2017-10-26T06:52:04.818Z,28.20
2017-10-26T06:53:05.431Z,28.29
2017-10-26T06:54:06.073Z,28.20
2017-10-26T06:55:06.685Z,28.39
2017-10-26T06:56:07.328Z,28.29
2017-10-26T06:57:07.940Z,28.39
2017-10-26T06:58:08.551Z,28.39
2017-10-26T06:59:09.164Z,28.29
2017-10-26T07:00:09.781Z,28.49
2017-10-26T07:01:10.397Z,28.10
2017-10-26T07:02:11.009Z,28.29
2017-10-26T07:03:11.624Z,28.01
2017-10-26T07:04:12.237Z,28.29
2017-10-26T07:05:12.847Z,28.10
2017-10-26T07:06:13.490Z,28.29
2017-10-26T07:07:14.101Z,28.39
2017-10-26T07:08:14.717Z,28.29
2017-10-26T07:09:15.334Z,28.29
2017-10-26T07:10:15.942Z,28.20
2017-10-26T07:11:16.561Z,28.39
2017-10-26T07:12:17.203Z,28.01
2017-10-26T07:13:17.815Z,28.29
2017-10-26T07:14:18.435Z,28.29
2017-10-26T07:15:19.080Z,28.01
2017-10-26T07:16:19.698Z,28.01
2017-10-26T07:17:20.311Z,28.39
2017-10-26T07:18:20.921Z,28.29
2017-10-26T07:19:21.535Z,28.20
2017-10-26T07:20:22.147Z,28.39
2017-10-26T07:21:22.757Z,28.29
2017-10-26T07:22:23.372Z,28.21
2017-10-26T07:23:23.986Z,27.91
2017-10-26T07:24:24.603Z,27.92
2017-10-26T07:25:25.246Z,28.12
2017-10-26T07:26:25.858Z,28.02
2017-10-26T07:27:26.504Z,27.92
2017-10-26T07:28:27.115Z,28.02
2017-10-26T07:29:27.730Z,28.02
2017-10-26T07:30:28.372Z,27.64
2017-10-26T07:31:28.985Z,27.73
2017-10-26T07:32:29.598Z,27.55
2017-10-26T07:33:30.212Z,27.73
2017-10-26T07:34:30.830Z,27.73
2017-10-26T07:35:31.449Z,27.45
2017-10-26T07:36:32.089Z,27.16
2017-10-26T07:37:32.705Z,27.26
2017-10-26T07:38:33.325Z,27.16
2017-10-26T07:39:33.937Z,26.88
2017-10-26T07:40:34.580Z,26.98
2017-10-26T07:41:35.196Z,27.08
2017-10-26T07:42:35.814Z,27.08
2017-10-26T07:43:36.431Z,27.08
2017-10-26T07:44:37.043Z,26.89
2017-10-26T07:45:37.659Z,26.98
2017-10-26T07:46:38.275Z,27.08
2017-10-26T07:47:38.894Z,26.98
2017-10-26T07:48:39.506Z,26.79
2017-10-26T07:49:40.123Z,26.79
2017-10-26T07:50:40.743Z,26.79
2017-10-26T07:51:41.356Z,26.79
2017-10-26T07:52:41.976Z,26.90
2017-10-26T07:53:42.588Z,26.98
2017-10-26T07:54:43.205Z,27.00
2017-10-26T07:55:43.852Z,27.00
2017-10-26T07:56:44.468Z,27.00
2017-10-26T07:57:45.088Z,26.81
2017-10-26T07:58:45.701Z,27.48
2017-10-26T07:59:46.349Z,27.01
2017-10-26T08:00:46.961Z,26.92
2017-10-26T08:01:47.577Z,26.54
2017-10-26T08:02:48.193Z,26.34
2017-10-26T08:03:48.811Z,26.34
2017-10-26T08:04:49.427Z,26.34
2017-10-26T08:05:50.043Z,25.96
2017-10-26T08:06:50.688Z,26.15
2017-10-26T08:07:51.304Z,25.96
2017-10-26T08:08:51.919Z,26.15
2017-10-26T08:09:52.535Z,26.25
2017-10-26T08:10:53.157Z,26.15
2017-10-26T08:11:53.779Z,26.25
2017-10-26T08:12:54.390Z,26.17
2017-10-26T08:13:55.002Z,25.88
2017-10-26T08:14:55.619Z,25.88
2017-10-26T08:15:56.238Z,25.98
2017-10-26T08:16:56.882Z,25.40
2017-10-26T08:17:57.499Z,24.93
2017-10-26T08:18:58.115Z,25.69
2017-10-26T08:19:58.730Z,25.12
2017-10-26T08:20:59.356Z,25.12
2017-10-26T08:21:59.962Z,25.50
2017-10-26T08:23:00.580Z,25.50
2017-10-26T08:24:01.197Z,25.31
2017-10-26T08:25:01.820Z,25.31
2017-10-26T08:26:02.465Z,25.12
2017-10-26T08:27:03.079Z,25.12
2017-10-26T08:28:03.694Z,25.21
2017-10-26T08:29:04.310Z,25.02
2017-10-26T08:30:04.927Z,25.40
2017-10-26T08:31:05.575Z,25.42
2017-10-26T08:32:06.192Z,25.70
2017-10-26T08:33:06.808Z,25.32
2017-10-26T08:34:07.425Z,25.32
2017-10-26T08:35:08.040Z,24.94
2017-10-26T08:36:08.661Z,25.23
2017-10-26T08:37:09.276Z,25.13
2017-10-26T08:38:09.892Z,25.13
2017-10-26T08:39:10.510Z,24.94
2017-10-26T08:40:11.124Z,25.23
2017-10-26T08:41:11.741Z,25.23
2017-10-26T08:42:12.361Z,25.23
2017-10-26T08:43:12.975Z,25.23
2017-10-26T08:44:13.592Z,24.84
2017-10-26T08:45:14.210Z,25.23
2017-10-26T08:46:14.824Z,24.94
2017-10-26T08:47:15.440Z,25.23
2017-10-26T08:48:16.057Z,25.42
2017-10-26T08:49:16.679Z,25.32
2017-10-26T08:50:17.300Z,25.23
2017-10-26T08:51:17.937Z,25.42
2017-10-26T08:52:18.605Z,25.51
2017-10-26T08:53:19.221Z,25.70
2017-10-26T08:54:19.847Z,25.33
2017-10-26T08:55:20.465Z,25.24
2017-10-26T08:56:21.078Z,24.85
2017-10-26T08:57:21.694Z,25.14
2017-10-26T08:58:22.315Z,24.85
2017-10-26T08:59:22.934Z,25.04
2017-10-26T09:00:23.548Z,24.48
2017-10-26T09:01:24.164Z,24.85
2017-10-26T09:02:24.785Z,24.76
2017-10-26T09:03:25.399Z,24.57
2017-10-26T09:04:26.015Z,24.38
2017-10-26T09:05:26.632Z,24.76
2017-10-26T09:06:27.253Z,24.95
2017-10-26T09:07:27.876Z,24.76
2017-10-26T09:08:28.488Z,24.19
2017-10-26T09:09:29.101Z,24.76
2017-10-26T09:10:29.719Z,24.28
2017-10-26T09:11:30.336Z,24.77
2017-10-26T09:12:30.952Z,24.77
2017-10-26T09:13:31.569Z,24.39
2017-10-26T09:14:32.189Z,24.49
2017-10-26T09:15:32.803Z,24.58
2017-10-26T09:16:33.420Z,24.49
2017-10-26T09:17:34.037Z,24.58
2017-10-26T09:18:34.660Z,24.49
2017-10-26T09:19:35.313Z,24.58
2017-10-26T09:20:35.929Z,24.58
2017-10-26T09:21:36.547Z,24.39
2017-10-26T09:22:37.169Z,24.10
2017-10-26T09:23:37.784Z,23.91
2017-10-26T09:24:38.408Z,24.19
2017-10-26T09:25:39.022Z,24.19
2017-10-26T09:26:39.638Z,24.10
2017-10-26T09:27:40.255Z,24.01
2017-10-26T09:28:40.873Z,24.49
2017-10-26T09:29:41.494Z,24.10
2017-10-26T09:30:42.140Z,24.19
2017-10-26T09:31:42.757Z,24.19
2017-10-26T09:32:43.376Z,24.10
2017-10-26T09:33:43.991Z,24.21
2017-10-26T09:34:44.614Z,24.11
2017-10-26T09:35:45.229Z,24.11
2017-10-26T09:36:45.845Z,23.63
2017-10-26T09:37:46.462Z,23.54
2017-10-26T09:38:47.081Z,23.44
2017-10-26T09:39:47.703Z,23.73
2017-10-26T09:40:48.317Z,23.36
2017-10-26T09:41:48.934Z,23.17
2017-10-26T09:42:49.552Z,23.16
2017-10-26T09:43:50.181Z,23.06
2017-10-26T09:44:50.789Z,23.27
2017-10-26T09:45:51.406Z,23.17
2017-10-26T09:46:52.032Z,23.07
2017-10-26T09:47:52.730Z,23.07
2017-10-26T09:48:53.352Z,23.17
2017-10-26T09:49:53.966Z,23.17
2017-10-26T09:50:54.583Z,23.17
2017-10-26T09:51:55.201Z,23.17
2017-10-26T09:52:55.823Z,23.27
2017-10-26T09:53:56.438Z,23.07
2017-10-26T09:54:57.055Z,23.17
2017-10-26T09:55:57.672Z,22.98
2017-10-26T09:56:58.290Z,23.17
2017-10-26T09:57:58.911Z,22.69
2017-10-26T09:58:59.555Z,22.88
2017-10-26T10:00:00.170Z,22.98
2017-10-26T10:01:00.818Z,23.07
2017-10-26T10:02:01.440Z,23.36
2017-10-26T10:03:02.061Z,23.46
2017-10-26T10:04:02.683Z,23.47
2017-10-26T10:05:03.296Z,23.08
2017-10-26T10:06:03.915Z,22.70
2017-10-26T10:07:04.537Z,22.70
2017-10-26T10:08:05.151Z,22.22
2017-10-26T10:09:05.771Z,22.41
2017-10-26T10:10:06.391Z,22.51
2017-10-26T10:11:07.009Z,22.51
2017-10-26T10:12:07.632Z,22.61
2017-10-26T10:13:08.251Z,22.52
2017-10-26T10:14:08.869Z,22.24
2017-10-26T10:15:09.486Z,22.61
2017-10-26T10:16:10.104Z,22.44
2017-10-26T10:17:10.722Z,22.15
2017-10-26T10:18:11.346Z,22.42
2017-10-26T10:19:11.964Z,22.14
2017-10-26T10:20:12.581Z,22.33
2017-10-26T10:21:13.229Z,22.33
2017-10-26T10:22:13.849Z,22.42
2017-10-26T10:23:14.467Z,22.33
2017-10-26T10:24:15.086Z,22.42
2017-10-26T10:25:15.709Z,22.42
2017-10-26T10:26:16.331Z,22.91
2017-10-26T10:27:16.945Z,23.01
2017-10-26T10:28:17.568Z,22.72
2017-10-26T10:29:18.190Z,22.34
2017-10-26T10:30:18.807Z,21.77
2017-10-26T10:31:19.432Z,21.67
2017-10-26T10:32:20.050Z,21.09
2017-10-26T10:33:20.676Z,21.67
2017-10-26T10:34:21.298Z,21.87
2017-10-26T10:35:21.915Z,21.97
2017-10-26T10:36:22.540Z,21.78
2017-10-26T10:37:23.161Z,21.30
2017-10-26T10:38:23.778Z,21.20
2017-10-26T10:39:24.400Z,21.20
2017-10-26T10:40:25.050Z,21.31
2017-10-26T10:41:25.670Z,21.21
2017-10-26T10:42:26.289Z,21.41
2017-10-26T10:43:26.915Z,21.41
2017-10-26T10:44:27.532Z,21.50
2017-10-26T10:45:28.179Z,21.41
2017-10-26T10:46:28.797Z,21.51
2017-10-26T10:47:29.418Z,21.22
2017-10-26T10:48:30.118Z,21.03
2017-10-26T10:49:30.739Z,20.55
2017-10-26T10:50:31.362Z,20.84
2017-10-26T10:51:31.981Z,20.55
2017-10-26T10:52:32.613Z,20.65
2017-10-26T10:53:33.225Z,20.85
2017-10-26T10:54:33.852Z,20.95
2017-10-26T10:55:34.476Z,20.27
2017-10-26T10:56:35.095Z,20.28
2017-10-26T10:57:35.718Z,19.80
2017-10-26T10:58:36.339Z,20.00
2017-10-26T10:59:36.959Z,19.61
2017-10-26T11:00:37.585Z,19.80
2017-10-26T11:01:38.235Z,19.32
2017-10-26T11:02:38.857Z,19.42
2017-10-26T11:03:39.478Z,19.51
2017-10-26T11:04:40.100Z,19.23
2017-10-26T11:05:40.722Z,19.42
2017-10-26T11:06:41.344Z,19.71
2017-10-26T11:07:41.966Z,19.71
2017-10-26T11:08:42.593Z,19.52
2017-10-26T11:09:43.217Z,19.04
2017-10-26T11:10:43.838Z,19.04
2017-10-26T11:11:44.459Z,19.04
2017-10-26T11:12:45.086Z,19.33
2017-10-26T11:13:45.742Z,19.62
2017-10-26T11:14:46.368Z,19.34
2017-10-26T11:15:46.985Z,19.15
2017-10-26T11:16:47.610Z,19.43
2017-10-26T11:17:48.228Z,19.05
2017-10-26T11:18:48.886Z,19.35
2017-10-26T11:19:49.539Z,19.25
2017-10-26T11:20:50.167Z,18.78
2017-10-26T11:21:50.785Z,18.78
2017-10-26T11:22:51.413Z,18.59
2017-10-26T11:23:52.030Z,18.68
2017-10-26T11:24:52.658Z,18.68
2017-10-26T11:25:53.278Z,18.29
2017-10-26T11:26:53.899Z,18.30
2017-10-26T11:27:54.523Z,18.00
2017-10-26T11:28:55.144Z,18.00
2017-10-26T11:29:55.767Z,18.00
2017-10-26T11:30:56.397Z,18.29
2017-10-26T11:31:57.018Z,18.00
2017-10-26T11:32:57.639Z,17.90
2017-10-26T11:33:58.266Z,17.81
2017-10-26T11:34:58.890Z,18.00
2017-10-26T11:35:59.511Z,18.19
2017-10-26T11:37:00.131Z,18.00
2017-10-26T11:38:00.752Z,18.29
2017-10-26T11:39:01.401Z,17.91
2017-10-26T11:40:02.033Z,17.90
2017-10-26T11:41:02.657Z,18.10
2017-10-26T11:42:03.278Z,17.33
2017-10-26T11:43:03.902Z,17.82
2017-10-26T11:44:04.532Z,17.82
2017-10-26T11:45:05.187Z,17.91
2017-10-26T11:46:05.806Z,17.43
2017-10-26T11:47:06.459Z,17.43
2017-10-26T11:48:07.120Z,17.23
2017-10-26T11:49:07.732Z,17.14
2017-10-26T11:50:08.356Z,17.33
2017-10-26T11:51:08.981Z,17.71
2017-10-26T11:52:09.601Z,17.71
2017-10-26T11:53:10.222Z,17.23
2017-10-26T11:54:10.848Z,17.03
2017-10-26T11:55:11.467Z,17.03
2017-10-26T11:56:12.095Z,16.65
2017-10-26T11:57:12.712Z,16.94
2017-10-26T11:58:13.334Z,16.56
2017-10-26T11:59:13.979Z,16.94
2017-10-26T12:00:14.577Z,16.94
2017-10-26T12:01:15.202Z,16.75
2017-10-26T12:02:15.825Z,16.56
2017-10-26T12:03:16.449Z,16.28
2017-10-26T12:04:17.075Z,16.56
2017-10-26T12:05:17.702Z,16.56
2017-10-26T12:06:18.326Z,16.38
2017-10-26T12:07:18.948Z,16.19
2017-10-26T12:08:19.575Z,15.80
2017-10-26T12:09:20.198Z,16.29
2017-10-26T12:10:20.820Z,15.91
2017-10-26T12:11:21.442Z,15.72
2017-10-26T12:12:22.067Z,15.14
2017-10-26T12:13:22.695Z,15.14
2017-10-26T12:14:23.322Z,14.95
2017-10-26T12:15:23.947Z,14.47
2017-10-26T12:16:24.574Z,14.18
2017-10-26T12:17:25.193Z,14.47
2017-10-26T12:18:25.823Z,14.08
2017-10-26T12:19:26.449Z,14.07
2017-10-26T12:20:27.070Z,13.98
2017-10-26T12:21:27.699Z,14.17
2017-10-26T12:22:28.318Z,14.26
2017-10-26T12:23:28.945Z,13.78
2017-10-26T12:24:29.567Z,13.98
2017-10-26T12:25:30.191Z,13.31
2017-10-26T12:26:30.815Z,12.92
2017-10-26T12:27:31.475Z,12.63
2017-10-26T12:28:32.096Z,12.54
2017-10-26T12:29:32.756Z,12.05
2017-10-26T12:30:33.380Z,11.76
2017-10-26T12:31:34.004Z,12.63
2017-10-26T12:32:34.628Z,13.01
2017-10-26T12:33:35.281Z,13.12
2017-10-26T12:34:35.904Z,13.50
2017-10-26T12:35:36.529Z,13.12
2017-10-26T12:36:37.155Z,13.40
2017-10-26T12:37:37.808Z,12.93
2017-10-26T12:38:38.434Z,13.02
2017-10-26T12:39:39.061Z,12.93
2017-10-26T12:40:39.718Z,12.54
2017-10-26T12:41:40.336Z,12.54
2017-10-26T12:42:40.971Z,12.26
2017-10-26T12:43:41.619Z,12.45
2017-10-26T12:44:42.243Z,12.54
2017-10-26T12:45:42.899Z,12.16
2017-10-26T12:46:43.521Z,12.06
2017-10-26T12:47:44.147Z,11.49
2017-10-26T12:48:44.772Z,11.40
2017-10-26T12:49:45.396Z,10.33
2017-10-26T12:50:46.018Z,10.33
2017-10-26T12:51:46.645Z,10.42
2017-10-26T12:52:47.271Z,10.33
2017-10-26T12:53:47.894Z,10.23
2017-10-26T12:54:48.518Z,9.94
2017-10-26T12:55:49.148Z,9.84
2017-10-26T12:56:49.769Z,9.94
2017-10-26T12:57:50.393Z,10.53
2017-10-26T12:58:51.019Z,10.24
2017-10-26T12:59:51.641Z,10.33
2017-10-26T13:00:52.266Z,10.14